Terminal Aerodrome Forecast
Issued by NWS

Home | Current Version | Previous Version | Text Only | Print | Product List | Glossary On
Versions: 1 2 3 4 5 6 7 8 9 10 11 12 13 14
000
FTUS46 KSGX 230725 AAA
TAFPSP
TAF AMD
KPSP 230725Z 2307/2406 31011KT P6SM SKC
     FM231000 VRB06KT P6SM SKC
     FM232100 32012G20KT P6SM SKC
     FM240200 32011KT P6SM SKC=

USA.gov is the U.S. government's official web portal to all federal, state and local government web resources and services.